AZU2202 SBSN-SBEG
Flight info
| Callsign | AZU2202 |
|---|---|
| Flight time | 1h 15m |
| Altitude | 32000 |
| Route | TOBUX UZ81 KULAB |
| Aircraft | E190/M-SDE3GILORVW/S |
Departure
| Time | 2026-05-07 22:17 |
|---|---|
| Airport | Santarém - Maestro Wilson Fonseca International Airport (SBSN) |
Arrival
| Time | 2026-05-07 23:32 |
|---|---|
| Airport | Eduardo Gomes International Airport (SBEG) |
| Time | Latitude | Longitude | Altitude | Speed | Heading |
|---|---|---|---|---|---|
| 2026-05-07 22:06 | -2.42327 | -54.78433 | 197 ft | 0 kts | 268° |
| 2026-05-07 22:06 | -2.42326 | -54.78425 | 197 ft | 0 kts | 264° |
| 2026-05-07 22:07 | -2.42326 | -54.78424 | 197 ft | 0 kts | 264° |
| 2026-05-07 22:10 | -2.42328 | -54.78449 | 197 ft | 8 kts | 269° |
| 2026-05-07 22:10 | -2.42335 | -54.78523 | 198 ft | 11 kts | 246° |
| 2026-05-07 22:10 | -2.42355 | -54.78576 | 199 ft | 5 kts | 287° |
| 2026-05-07 22:11 | -2.42334 | -54.78607 | 199 ft | 5 kts | 312° |
| 2026-05-07 22:11 | -2.42308 | -54.78633 | 199 ft | 5 kts | 315° |
| 2026-05-07 22:11 | -2.42283 | -54.78657 | 199 ft | 4 kts | 320° |
| 2026-05-07 22:11 | -2.42258 | -54.78679 | 199 ft | 4 kts | 317° |
| 2026-05-07 22:12 | -2.42235 | -54.78702 | 199 ft | 5 kts | 313° |
| 2026-05-07 22:12 | -2.42202 | -54.78735 | 200 ft | 7 kts | 316° |
| 2026-05-07 22:12 | -2.42170 | -54.78786 | 200 ft | 9 kts | 281° |
| 2026-05-07 22:12 | -2.42176 | -54.78868 | 201 ft | 15 kts | 259° |
| 2026-05-07 22:13 | -2.42193 | -54.78994 | 202 ft | 21 kts | 257° |
| 2026-05-07 22:13 | -2.42222 | -54.79156 | 203 ft | 24 kts | 261° |
| 2026-05-07 22:13 | -2.42251 | -54.79326 | 202 ft | 24 kts | 261° |
| 2026-05-07 22:13 | -2.42278 | -54.79498 | 199 ft | 25 kts | 259° |
| 2026-05-07 22:14 | -2.42308 | -54.79677 | 196 ft | 26 kts | 260° |
| 2026-05-07 22:14 | -2.42341 | -54.79864 | 192 ft | 28 kts | 261° |
| 2026-05-07 22:14 | -2.42371 | -54.80060 | 188 ft | 29 kts | 261° |
| 2026-05-07 22:14 | -2.42397 | -54.80215 | 186 ft | 14 kts | 259° |
| 2026-05-07 22:15 | -2.42432 | -54.80289 | 185 ft | 8 kts | 249° |
| 2026-05-07 22:15 | -2.42424 | -54.80326 | 184 ft | 2 kts | 359° |
| 2026-05-07 22:15 | -2.42414 | -54.80312 | 184 ft | 0 kts | 72° |
| 2026-05-07 22:15 | -2.42414 | -54.80310 | 184 ft | 0 kts | 73° |
| 2026-05-07 22:16 | -2.42399 | -54.80228 | 186 ft | 38 kts | 81° |
| 2026-05-07 22:16 | -2.42319 | -54.79742 | 195 ft | 102 kts | 79° |
| 2026-05-07 22:16 | -2.42175 | -54.78857 | 202 ft | 154 kts | 81° |
| 2026-05-07 22:16 | -2.42047 | -54.77735 | 567 ft | 166 kts | 85° |
| 2026-05-07 22:17 | -2.41954 | -54.76526 | 931 ft | 187 kts | 84° |
| 2026-05-07 22:17 | -2.42086 | -54.75280 | 1740 ft | 184 kts | 115° |
| 2026-05-07 22:17 | -2.43065 | -54.74396 | 2266 ft | 207 kts | 158° |
| 2026-05-07 22:17 | -2.44554 | -54.74419 | 2815 ft | 228 kts | 195° |
| 2026-05-07 22:18 | -2.46096 | -54.74936 | 3484 ft | 240 kts | 196° |
| 2026-05-07 22:18 | -2.49609 | -54.76135 | 4495 ft | 284 kts | 197° |
| 2026-05-07 22:18 | -2.51473 | -54.76774 | 5380 ft | 288 kts | 196° |
| 2026-05-07 22:19 | -2.53373 | -54.77425 | 6349 ft | 288 kts | 196° |
| 2026-05-07 22:19 | -2.55266 | -54.78074 | 7280 ft | 289 kts | 196° |
| 2026-05-07 22:19 | -2.57179 | -54.78729 | 8095 ft | 293 kts | 197° |
| 2026-05-07 22:19 | -2.59114 | -54.79392 | 8854 ft | 296 kts | 196° |
| 2026-05-07 22:20 | -2.61068 | -54.80062 | 9619 ft | 300 kts | 197° |
| 2026-05-07 22:20 | -2.63043 | -54.80738 | 10368 ft | 304 kts | 197° |
| 2026-05-07 22:20 | -2.65088 | -54.81438 | 10983 ft | 313 kts | 197° |
| 2026-05-07 22:20 | -2.67180 | -54.82155 | 11558 ft | 322 kts | 197° |
| 2026-05-07 22:21 | -2.69257 | -54.82993 | 12173 ft | 330 kts | 212° |
| 2026-05-07 22:21 | -2.70863 | -54.84666 | 12830 ft | 335 kts | 242° |
| 2026-05-07 22:21 | -2.71495 | -54.86892 | 13385 ft | 341 kts | 270° |
| 2026-05-07 22:21 | -2.71024 | -54.89200 | 13876 ft | 345 kts | 296° |
| 2026-05-07 22:22 | -2.69959 | -54.91366 | 14481 ft | 350 kts | 296° |
| 2026-05-07 22:22 | -2.68958 | -54.93567 | 15117 ft | 353 kts | 295° |
| 2026-05-07 22:22 | -2.67964 | -54.95845 | 15759 ft | 356 kts | 294° |
| 2026-05-07 22:22 | -2.66993 | -54.98107 | 16356 ft | 359 kts | 294° |
| 2026-05-07 22:23 | -2.66012 | -55.00409 | 16942 ft | 362 kts | 294° |
| 2026-05-07 22:23 | -2.65022 | -55.02736 | 17519 ft | 366 kts | 294° |
| 2026-05-07 22:23 | -2.64031 | -55.05067 | 18040 ft | 370 kts | 293° |
| 2026-05-07 22:23 | -2.63173 | -55.07084 | 18456 ft | 375 kts | 293° |
| 2026-05-07 22:24 | -2.62147 | -55.09499 | 18972 ft | 379 kts | 293° |
| 2026-05-07 22:24 | -2.61102 | -55.11955 | 19474 ft | 383 kts | 293° |
| 2026-05-07 22:24 | -2.60055 | -55.14419 | 19958 ft | 388 kts | 293° |
| 2026-05-07 22:24 | -2.58999 | -55.16904 | 20441 ft | 392 kts | 293° |
| 2026-05-07 22:25 | -2.57932 | -55.19413 | 20898 ft | 396 kts | 292° |
| 2026-05-07 22:25 | -2.56859 | -55.21935 | 21347 ft | 400 kts | 293° |
| 2026-05-07 22:25 | -2.55764 | -55.24512 | 21814 ft | 404 kts | 292° |
| 2026-05-07 22:25 | -2.54657 | -55.27114 | 22248 ft | 408 kts | 292° |
| 2026-05-07 22:26 | -2.53545 | -55.29729 | 22714 ft | 410 kts | 292° |
| 2026-05-07 22:26 | -2.52439 | -55.32330 | 23225 ft | 411 kts | 292° |
| 2026-05-07 22:26 | -2.51308 | -55.34989 | 23743 ft | 412 kts | 292° |
| 2026-05-07 22:26 | -2.50256 | -55.37634 | 24196 ft | 414 kts | 284° |
| 2026-05-07 22:27 | -2.50020 | -55.40489 | 24643 ft | 414 kts | 264° |
| 2026-05-07 22:27 | -2.50303 | -55.43283 | 25082 ft | 415 kts | 263° |
| 2026-05-07 22:27 | -2.50625 | -55.46158 | 25523 ft | 417 kts | 263° |
| 2026-05-07 22:27 | -2.50951 | -55.49004 | 25953 ft | 419 kts | 263° |
| 2026-05-07 22:28 | -2.51283 | -55.51888 | 26380 ft | 420 kts | 263° |
| 2026-05-07 22:28 | -2.51618 | -55.54793 | 26787 ft | 422 kts | 263° |
| 2026-05-07 22:28 | -2.51956 | -55.57727 | 27181 ft | 425 kts | 263° |
| 2026-05-07 22:28 | -2.52295 | -55.60672 | 27565 ft | 427 kts | 263° |
| 2026-05-07 22:29 | -2.52632 | -55.63596 | 27953 ft | 428 kts | 263° |
| 2026-05-07 22:29 | -2.52973 | -55.66552 | 28354 ft | 430 kts | 263° |
| 2026-05-07 22:29 | -2.53316 | -55.69528 | 28768 ft | 430 kts | 263° |
| 2026-05-07 22:29 | -2.53656 | -55.72486 | 29157 ft | 431 kts | 263° |
| 2026-05-07 22:30 | -2.54003 | -55.75496 | 29509 ft | 433 kts | 263° |
| 2026-05-07 22:30 | -2.54346 | -55.78477 | 29836 ft | 436 kts | 263° |
| 2026-05-07 22:30 | -2.54693 | -55.81487 | 30165 ft | 438 kts | 263° |
| 2026-05-07 22:30 | -2.55038 | -55.84486 | 30489 ft | 440 kts | 263° |
| 2026-05-07 22:31 | -2.55392 | -55.87561 | 30820 ft | 442 kts | 263° |
| 2026-05-07 22:31 | -2.55738 | -55.90571 | 31126 ft | 444 kts | 263° |
| 2026-05-07 22:31 | -2.56091 | -55.93635 | 31429 ft | 445 kts | 263° |
| 2026-05-07 22:31 | -2.56448 | -55.96741 | 31786 ft | 444 kts | 263° |
| 2026-05-07 22:32 | -2.56794 | -55.99754 | 31868 ft | 441 kts | 263° |
| 2026-05-07 22:32 | -2.57506 | -56.05945 | 31892 ft | 457 kts | 263° |
| 2026-05-07 22:33 | -2.58242 | -56.12351 | 31889 ft | 471 kts | 263° |
| 2026-05-07 22:33 | -2.58991 | -56.18874 | 31884 ft | 472 kts | 263° |
| 2026-05-07 22:34 | -2.59735 | -56.25363 | 31883 ft | 471 kts | 263° |
| 2026-05-07 22:34 | -2.60479 | -56.31832 | 31878 ft | 470 kts | 263° |
| 2026-05-07 22:35 | -2.61225 | -56.38324 | 31877 ft | 470 kts | 263° |
| 2026-05-07 22:35 | -2.61970 | -56.44796 | 31876 ft | 471 kts | 263° |
| 2026-05-07 22:36 | -2.62720 | -56.51292 | 31873 ft | 470 kts | 263° |
| 2026-05-07 22:36 | -2.63466 | -56.57753 | 31869 ft | 471 kts | 263° |
| 2026-05-07 22:37 | -2.64215 | -56.64243 | 31867 ft | 470 kts | 263° |
| 2026-05-07 22:37 | -2.64952 | -56.70641 | 31866 ft | 469 kts | 263° |
| 2026-05-07 22:38 | -2.65697 | -56.77108 | 31866 ft | 469 kts | 263° |
| 2026-05-07 22:38 | -2.66443 | -56.83585 | 31867 ft | 470 kts | 263° |
| 2026-05-07 22:39 | -2.67192 | -56.90086 | 31867 ft | 471 kts | 263° |
| 2026-05-07 22:39 | -2.67938 | -56.96574 | 31865 ft | 471 kts | 263° |
| 2026-05-07 22:40 | -2.68684 | -57.03062 | 31871 ft | 469 kts | 263° |
| 2026-05-07 22:40 | -2.69430 | -57.09544 | 31878 ft | 470 kts | 263° |
| 2026-05-07 22:41 | -2.70171 | -57.15991 | 31879 ft | 470 kts | 263° |
| 2026-05-07 22:41 | -2.70915 | -57.22469 | 31882 ft | 471 kts | 263° |
| 2026-05-07 22:42 | -2.71658 | -57.28940 | 31880 ft | 470 kts | 263° |
| 2026-05-07 22:42 | -2.72406 | -57.35458 | 31878 ft | 469 kts | 263° |
| 2026-05-07 22:43 | -2.73148 | -57.41930 | 31881 ft | 469 kts | 263° |
| 2026-05-07 22:43 | -2.73880 | -57.48317 | 31886 ft | 471 kts | 263° |
| 2026-05-07 22:44 | -2.74623 | -57.54802 | 31886 ft | 469 kts | 263° |
| 2026-05-07 22:44 | -2.75359 | -57.61230 | 31886 ft | 469 kts | 263° |
| 2026-05-07 22:45 | -2.76100 | -57.67704 | 31886 ft | 468 kts | 263° |
| 2026-05-07 22:45 | -2.76842 | -57.74191 | 31886 ft | 470 kts | 263° |
| 2026-05-07 22:46 | -2.77578 | -57.80683 | 31886 ft | 470 kts | 263° |
| 2026-05-07 22:46 | -2.78310 | -57.87142 | 31886 ft | 468 kts | 263° |
| 2026-05-07 22:47 | -2.79048 | -57.93587 | 31880 ft | 469 kts | 263° |
| 2026-05-07 22:47 | -2.79414 | -57.96780 | 31866 ft | 457 kts | 263° |
| 2026-05-07 22:47 | -2.79774 | -57.99931 | 31863 ft | 450 kts | 263° |
| 2026-05-07 22:48 | -2.80484 | -58.06133 | 31863 ft | 451 kts | 263° |
| 2026-05-07 22:48 | -2.80843 | -58.09275 | 31428 ft | 455 kts | 263° |
| 2026-05-07 22:48 | -2.81199 | -58.12383 | 30947 ft | 456 kts | 263° |
| 2026-05-07 22:48 | -2.81559 | -58.15532 | 30445 ft | 457 kts | 263° |
| 2026-05-07 22:49 | -2.81919 | -58.18683 | 29939 ft | 454 kts | 263° |
| 2026-05-07 22:49 | -2.82278 | -58.21821 | 29439 ft | 451 kts | 263° |
| 2026-05-07 22:49 | -2.82632 | -58.24923 | 28942 ft | 448 kts | 263° |
| 2026-05-07 22:49 | -2.82979 | -58.27964 | 28457 ft | 445 kts | 263° |
| 2026-05-07 22:50 | -2.83333 | -58.31058 | 27962 ft | 443 kts | 263° |
| 2026-05-07 22:50 | -2.83676 | -58.34058 | 27482 ft | 440 kts | 263° |
| 2026-05-07 22:50 | -2.84021 | -58.37088 | 26999 ft | 438 kts | 263° |
| 2026-05-07 22:50 | -2.84370 | -58.40147 | 26512 ft | 436 kts | 263° |
| 2026-05-07 22:51 | -2.84712 | -58.43144 | 26031 ft | 435 kts | 263° |
| 2026-05-07 22:51 | -2.85052 | -58.46119 | 25557 ft | 432 kts | 263° |
| 2026-05-07 22:51 | -2.85387 | -58.49059 | 25253 ft | 426 kts | 263° |
| 2026-05-07 22:51 | -2.85724 | -58.52028 | 25279 ft | 426 kts | 263° |
| 2026-05-07 22:52 | -2.86057 | -58.54966 | 25285 ft | 428 kts | 263° |
| 2026-05-07 22:52 | -2.86392 | -58.57933 | 25290 ft | 430 kts | 263° |
| 2026-05-07 22:52 | -2.86729 | -58.60929 | 25291 ft | 430 kts | 263° |
| 2026-05-07 22:52 | -2.87059 | -58.63868 | 25293 ft | 430 kts | 263° |
| 2026-05-07 22:53 | -2.87389 | -58.66820 | 25294 ft | 429 kts | 263° |
| 2026-05-07 22:53 | -2.87710 | -58.69836 | 25291 ft | 429 kts | 263° |
| 2026-05-07 22:53 | -2.88009 | -58.72800 | 25291 ft | 430 kts | 263° |
| 2026-05-07 22:53 | -2.88310 | -58.75786 | 25290 ft | 430 kts | 264° |
| 2026-05-07 22:54 | -2.88606 | -58.78751 | 25285 ft | 430 kts | 263° |
| 2026-05-07 22:54 | -2.88904 | -58.81740 | 25284 ft | 430 kts | 264° |
| 2026-05-07 22:54 | -2.89198 | -58.84698 | 25284 ft | 431 kts | 264° |
| 2026-05-07 22:54 | -2.89493 | -58.87676 | 25282 ft | 429 kts | 264° |
| 2026-05-07 22:55 | -2.89786 | -58.90653 | 25281 ft | 430 kts | 264° |
| 2026-05-07 22:55 | -2.90075 | -58.93599 | 25280 ft | 431 kts | 264° |
| 2026-05-07 22:55 | -2.90366 | -58.96580 | 25280 ft | 429 kts | 264° |
| 2026-05-07 22:55 | -2.90637 | -58.99553 | 25272 ft | 430 kts | 268° |
| 2026-05-07 22:56 | -2.90207 | -59.02501 | 25258 ft | 430 kts | 289° |
| 2026-05-07 22:56 | -2.89133 | -59.05267 | 25304 ft | 432 kts | 291° |
| 2026-05-07 22:56 | -2.88040 | -59.08064 | 25302 ft | 429 kts | 291° |
| 2026-05-07 22:56 | -2.86966 | -59.10842 | 25292 ft | 426 kts | 288° |
| 2026-05-07 22:57 | -2.86522 | -59.13726 | 25283 ft | 421 kts | 266° |
| 2026-05-07 22:57 | -2.87195 | -59.16509 | 25309 ft | 414 kts | 243° |
| 2026-05-07 22:57 | -2.88878 | -59.18807 | 25346 ft | 406 kts | 219° |
| 2026-05-07 22:57 | -2.91284 | -59.20226 | 25388 ft | 396 kts | 196° |
| 2026-05-07 22:58 | -2.93979 | -59.20560 | 25437 ft | 388 kts | 174° |
| 2026-05-07 22:58 | -2.96578 | -59.20000 | 25478 ft | 389 kts | 156° |
| 2026-05-07 22:58 | -2.98943 | -59.18639 | 25534 ft | 398 kts | 140° |
| 2026-05-07 22:58 | -3.00850 | -59.16566 | 25584 ft | 409 kts | 123° |
| 2026-05-07 22:59 | -3.02091 | -59.13969 | 25620 ft | 414 kts | 106° |
| 2026-05-07 22:59 | -3.02524 | -59.11153 | 25645 ft | 414 kts | 90° |
| 2026-05-07 22:59 | -3.02121 | -59.08306 | 25666 ft | 415 kts | 74° |
| 2026-05-07 22:59 | -3.00911 | -59.05695 | 25688 ft | 417 kts | 57° |
| 2026-05-07 23:00 | -2.98986 | -59.03519 | 25710 ft | 420 kts | 41° |
| 2026-05-07 23:00 | -2.96483 | -59.01961 | 25732 ft | 423 kts | 24° |
| 2026-05-07 23:00 | -2.93671 | -59.01178 | 25753 ft | 425 kts | 8° |
| 2026-05-07 23:00 | -2.90702 | -59.01208 | 25773 ft | 428 kts | 352° |
| 2026-05-07 23:01 | -2.87816 | -59.02078 | 25795 ft | 430 kts | 335° |
| 2026-05-07 23:01 | -2.85313 | -59.03695 | 25817 ft | 431 kts | 319° |
| 2026-05-07 23:01 | -2.83331 | -59.05972 | 25837 ft | 433 kts | 302° |
| 2026-05-07 23:01 | -2.82078 | -59.08657 | 25857 ft | 434 kts | 286° |
| 2026-05-07 23:02 | -2.81606 | -59.11658 | 25881 ft | 432 kts | 270° |
| 2026-05-07 23:02 | -2.81979 | -59.14600 | 25901 ft | 432 kts | 253° |
| 2026-05-07 23:02 | -2.83172 | -59.17364 | 25923 ft | 430 kts | 237° |
| 2026-05-07 23:02 | -2.85038 | -59.19626 | 25946 ft | 427 kts | 221° |
| 2026-05-07 23:03 | -2.87505 | -59.21307 | 25967 ft | 424 kts | 204° |
| 2026-05-07 23:03 | -2.90226 | -59.22201 | 25992 ft | 421 kts | 190° |
| 2026-05-07 23:03 | -2.93060 | -59.22917 | 26232 ft | 422 kts | 197° |
| 2026-05-07 23:03 | -2.95795 | -59.24052 | 26562 ft | 427 kts | 206° |
| 2026-05-07 23:04 | -2.98348 | -59.25590 | 26896 ft | 431 kts | 214° |
| 2026-05-07 23:04 | -3.00686 | -59.27521 | 27242 ft | 434 kts | 223° |
| 2026-05-07 23:04 | -3.02705 | -59.29760 | 27588 ft | 437 kts | 231° |
| 2026-05-07 23:04 | -3.04414 | -59.32326 | 27943 ft | 440 kts | 240° |
| 2026-05-07 23:05 | -3.05739 | -59.35091 | 27962 ft | 442 kts | 248° |
| 2026-05-07 23:05 | -3.06654 | -59.38038 | 27963 ft | 443 kts | 256° |
| 2026-05-07 23:05 | -3.07123 | -59.41057 | 27966 ft | 442 kts | 265° |
| 2026-05-07 23:05 | -3.07145 | -59.44100 | 27966 ft | 443 kts | 274° |
| 2026-05-07 23:06 | -3.06651 | -59.47173 | 27969 ft | 444 kts | 284° |
| 2026-05-07 23:06 | -3.05686 | -59.50085 | 27735 ft | 448 kts | 290° |
| 2026-05-07 23:06 | -3.04605 | -59.52970 | 27198 ft | 446 kts | 289° |
| 2026-05-07 23:06 | -3.03579 | -59.55900 | 26671 ft | 438 kts | 290° |
| 2026-05-07 23:07 | -3.02278 | -59.58643 | 26074 ft | 437 kts | 299° |
| 2026-05-07 23:07 | -3.00734 | -59.61227 | 25021 ft | 443 kts | 303° |
| 2026-05-07 23:07 | -2.98951 | -59.63743 | 23613 ft | 447 kts | 308° |
| 2026-05-07 23:07 | -2.96984 | -59.66099 | 21710 ft | 449 kts | 313° |
| 2026-05-07 23:08 | -2.94917 | -59.68346 | 20457 ft | 434 kts | 314° |
| 2026-05-07 23:08 | -2.92810 | -59.70441 | 19154 ft | 420 kts | 319° |
| 2026-05-07 23:08 | -2.90735 | -59.72369 | 18200 ft | 401 kts | 314° |
| 2026-05-07 23:08 | -2.89279 | -59.74678 | 16693 ft | 402 kts | 291° |
| 2026-05-07 23:09 | -2.88656 | -59.77352 | 15340 ft | 389 kts | 284° |
| 2026-05-07 23:09 | -2.87879 | -59.79474 | 17455 ft | 293 kts | 301° |
| 2026-05-07 23:09 | -2.86919 | -59.80809 | 19459 ft | 212 kts | 320° |
| 2026-05-07 23:09 | -2.85888 | -59.81728 | 19842 ft | 217 kts | 315° |
| 2026-05-07 23:10 | -2.84935 | -59.83161 | 19088 ft | 280 kts | 292° |
| 2026-05-07 23:10 | -2.84398 | -59.85093 | 19518 ft | 280 kts | 282° |
| 2026-05-07 23:10 | -2.84058 | -59.87015 | 19846 ft | 289 kts | 277° |
| 2026-05-07 23:10 | -2.84027 | -59.89105 | 19368 ft | 316 kts | 259° |
| 2026-05-07 23:11 | -2.84734 | -59.91232 | 18439 ft | 327 kts | 245° |
| 2026-05-07 23:11 | -2.85826 | -59.93191 | 17322 ft | 332 kts | 237° |
| 2026-05-07 23:11 | -2.87151 | -59.95110 | 15987 ft | 338 kts | 234° |
| 2026-05-07 23:11 | -2.88559 | -59.96935 | 14929 ft | 333 kts | 228° |
| 2026-05-07 23:12 | -2.90120 | -59.98625 | 13937 ft | 327 kts | 226° |
| 2026-05-07 23:12 | -2.91743 | -60.00158 | 12901 ft | 323 kts | 217° |
| 2026-05-07 23:12 | -2.93300 | -60.01744 | 11555 ft | 330 kts | 240° |
| 2026-05-07 23:12 | -2.93941 | -60.03904 | 10016 ft | 334 kts | 260° |
| 2026-05-07 23:13 | -2.94383 | -60.06083 | 9682 ft | 300 kts | 254° |
| 2026-05-07 23:13 | -2.94872 | -60.08055 | 9005 ft | 288 kts | 259° |
| 2026-05-07 23:13 | -2.95248 | -60.09894 | 8899 ft | 253 kts | 260° |
| 2026-05-07 23:13 | -2.95463 | -60.11551 | 8749 ft | 238 kts | 266° |
| 2026-05-07 23:14 | -2.95446 | -60.13236 | 8111 ft | 246 kts | 277° |
| 2026-05-07 23:14 | -2.95146 | -60.14837 | 8382 ft | 214 kts | 283° |
| 2026-05-07 23:14 | -2.94968 | -60.16215 | 8523 ft | 198 kts | 278° |
| 2026-05-07 23:14 | -2.94674 | -60.17549 | 8369 ft | 189 kts | 294° |
| 2026-05-07 23:15 | -2.94143 | -60.18658 | 8453 ft | 169 kts | 302° |
| 2026-05-07 23:15 | -2.93473 | -60.19686 | 8002 ft | 186 kts | 307° |
| 2026-05-07 23:15 | -2.92902 | -60.20846 | 7826 ft | 185 kts | 290° |
| 2026-05-07 23:15 | -2.92567 | -60.22057 | 7786 ft | 176 kts | 287° |
| 2026-05-07 23:16 | -2.92239 | -60.23259 | 7466 ft | 184 kts | 290° |
| 2026-05-07 23:16 | -2.91892 | -60.24493 | 7286 ft | 183 kts | 283° |
| 2026-05-07 23:16 | -2.91812 | -60.25750 | 7139 ft | 181 kts | 270° |
| 2026-05-07 23:16 | -2.91918 | -60.27014 | 6922 ft | 184 kts | 263° |
| 2026-05-07 23:17 | -2.92202 | -60.28242 | 6762 ft | 181 kts | 252° |
| 2026-05-07 23:17 | -2.92675 | -60.29408 | 6601 ft | 179 kts | 240° |
| 2026-05-07 23:17 | -2.93384 | -60.30444 | 6371 ft | 182 kts | 229° |
| 2026-05-07 23:17 | -2.94310 | -60.31279 | 6137 ft | 177 kts | 210° |
| 2026-05-07 23:18 | -2.95435 | -60.31802 | 5762 ft | 178 kts | 196° |
| 2026-05-07 23:18 | -2.96608 | -60.32162 | 5490 ft | 173 kts | 192° |
| 2026-05-07 23:18 | -2.97768 | -60.32202 | 5031 ft | 175 kts | 155° |
| 2026-05-07 23:18 | -2.98760 | -60.31514 | 4623 ft | 168 kts | 129° |
| 2026-05-07 23:19 | -2.99425 | -60.30644 | 4590 ft | 148 kts | 120° |
| 2026-05-07 23:19 | -3.00027 | -60.29804 | 4304 ft | 150 kts | 124° |
| 2026-05-07 23:19 | -3.00668 | -60.28975 | 3999 ft | 153 kts | 123° |
| 2026-05-07 23:19 | -3.01257 | -60.28086 | 3731 ft | 150 kts | 116° |
| 2026-05-07 23:20 | -3.01685 | -60.27164 | 3585 ft | 140 kts | 109° |
| 2026-05-07 23:20 | -3.02045 | -60.26278 | 3380 ft | 139 kts | 108° |
| 2026-05-07 23:20 | -3.02379 | -60.25392 | 3196 ft | 135 kts | 107° |
| 2026-05-07 23:20 | -3.02704 | -60.24497 | 2948 ft | 137 kts | 107° |
| 2026-05-07 23:21 | -3.02981 | -60.23621 | 2804 ft | 131 kts | 103° |
| 2026-05-07 23:21 | -3.03235 | -60.22729 | 2586 ft | 132 kts | 103° |
| 2026-05-07 23:21 | -3.03472 | -60.21867 | 2479 ft | 123 kts | 101° |
| 2026-05-07 23:21 | -3.03620 | -60.21040 | 2303 ft | 122 kts | 93° |
| 2026-05-07 23:22 | -3.03714 | -60.20184 | 2100 ft | 123 kts | 95° |
| 2026-05-07 23:22 | -3.03793 | -60.19352 | 1954 ft | 120 kts | 93° |
| 2026-05-07 23:22 | -3.03884 | -60.18536 | 1844 ft | 112 kts | 95° |
| 2026-05-07 23:22 | -3.03962 | -60.17771 | 1623 ft | 114 kts | 91° |
| 2026-05-07 23:23 | -3.03952 | -60.16992 | 1436 ft | 111 kts | 84° |
| 2026-05-07 23:23 | -3.03877 | -60.16167 | 1453 ft | 128 kts | 85° |
| 2026-05-07 23:23 | -3.03788 | -60.15277 | 1650 ft | 133 kts | 79° |
| 2026-05-07 23:23 | -3.03572 | -60.14405 | 1976 ft | 129 kts | 75° |
| 2026-05-07 23:24 | -3.03297 | -60.13581 | 2378 ft | 125 kts | 78° |
| 2026-05-07 23:24 | -3.03093 | -60.12700 | 2615 ft | 133 kts | 75° |
| 2026-05-07 23:24 | -3.03092 | -60.11816 | 3002 ft | 130 kts | 108° |
| 2026-05-07 23:24 | -3.03490 | -60.11022 | 3150 ft | 123 kts | 112° |
| 2026-05-07 23:25 | -3.04030 | -60.10273 | 2832 ft | 141 kts | 135° |
| 2026-05-07 23:25 | -3.04921 | -60.09868 | 2592 ft | 152 kts | 169° |
| 2026-05-07 23:25 | -3.05964 | -60.10060 | 2398 ft | 156 kts | 206° |
| 2026-05-07 23:25 | -3.06603 | -60.10898 | 1996 ft | 161 kts | 268° |
| 2026-05-07 23:26 | -3.06284 | -60.11923 | 2015 ft | 145 kts | 311° |
| 2026-05-07 23:26 | -3.05657 | -60.12647 | 2061 ft | 144 kts | 309° |
| 2026-05-07 23:26 | -3.05071 | -60.13502 | 2021 ft | 149 kts | 303° |
| 2026-05-07 23:26 | -3.04701 | -60.14469 | 2044 ft | 150 kts | 281° |
| 2026-05-07 23:27 | -3.04284 | -60.16334 | 2266 ft | 134 kts | 300° |
| 2026-05-07 23:27 | -3.03848 | -60.17173 | 2310 ft | 135 kts | 300° |
| 2026-05-07 23:27 | -3.03374 | -60.17991 | 2225 ft | 144 kts | 317° |
| 2026-05-07 23:28 | -3.02448 | -60.18318 | 2090 ft | 144 kts | 13° |
| 2026-05-07 23:28 | -3.01633 | -60.17748 | 1912 ft | 151 kts | 61° |
| 2026-05-07 23:28 | -3.01553 | -60.16737 | 1779 ft | 146 kts | 108° |
| 2026-05-07 23:28 | -3.02178 | -60.15969 | 1556 ft | 141 kts | 137° |
| 2026-05-07 23:29 | -3.02945 | -60.15379 | 1332 ft | 140 kts | 141° |
| 2026-05-07 23:29 | -3.03663 | -60.14695 | 1089 ft | 142 kts | 126° |
| 2026-05-07 23:29 | -3.04121 | -60.13831 | 904 ft | 139 kts | 106° |
| 2026-05-07 23:29 | -3.04187 | -60.12909 | 863 ft | 126 kts | 79° |
| 2026-05-07 23:30 | -3.04013 | -60.12075 | 827 ft | 125 kts | 79° |
| 2026-05-07 23:30 | -3.03858 | -60.11184 | 902 ft | 131 kts | 82° |
| 2026-05-07 23:30 | -3.03808 | -60.10257 | 965 ft | 137 kts | 91° |
| 2026-05-07 23:30 | -3.03864 | -60.09349 | 901 ft | 125 kts | 89° |
| 2026-05-07 23:31 | -3.03849 | -60.08478 | 746 ft | 128 kts | 89° |
| 2026-05-07 23:31 | -3.03868 | -60.07571 | 603 ft | 132 kts | 90° |
| 2026-05-07 23:31 | -3.03859 | -60.06691 | 404 ft | 125 kts | 89° |
| 2026-05-07 23:31 | -3.03861 | -60.05841 | 282 ft | 127 kts | 89° |
| 2026-05-07 23:32 | -3.03858 | -60.05170 | 269 ft | 97 kts | 94° |
| 2026-05-07 23:32 | -3.03860 | -60.04711 | 269 ft | 42 kts | 90° |
| 2026-05-07 23:32 | -3.03859 | -60.04528 | 269 ft | 42 kts | 90° |
| 2026-05-07 23:32 | -3.03863 | -60.04305 | 269 ft | 26 kts | 91° |
| 2026-05-07 23:33 | -3.03866 | -60.04244 | 269 ft | 1 kts | 38° |
| 2026-05-07 23:33 | -3.03859 | -60.04253 | 269 ft | 2 kts | 277° |
| 2026-05-07 23:33 | -3.03861 | -60.04279 | 269 ft | 4 kts | 263° |
| 2026-05-07 23:33 | -3.03864 | -60.04310 | 269 ft | 5 kts | 266° |
| 2026-05-07 23:34 | -3.03864 | -60.04348 | 269 ft | 6 kts | 272° |
| 2026-05-07 23:34 | -3.03861 | -60.04400 | 269 ft | 6 kts | 295° |
| 2026-05-07 23:34 | -3.03850 | -60.04398 | 269 ft | 2 kts | 86° |
| 2026-05-07 23:34 | -3.03849 | -60.04376 | 269 ft | 4 kts | 89° |
| 2026-05-07 23:35 | -3.03850 | -60.04345 | 269 ft | 5 kts | 96° |
| 2026-05-07 23:35 | -3.03858 | -60.04306 | 269 ft | 6 kts | 100° |
| 2026-05-07 23:35 | -3.03865 | -60.04259 | 269 ft | 7 kts | 93° |
| 2026-05-07 23:35 | -3.03864 | -60.04224 | 269 ft | 8 kts | 85° |
| 2026-05-07 23:36 | -3.03859 | -60.04166 | 269 ft | 9 kts | 85° |
| 2026-05-07 23:36 | -3.03852 | -60.04098 | 269 ft | 10 kts | 81° |
| 2026-05-07 23:36 | -3.03838 | -60.04022 | 269 ft | 11 kts | 92° |
| 2026-05-07 23:36 | -3.03857 | -60.03943 | 269 ft | 12 kts | 104° |
| 2026-05-07 23:37 | -3.03865 | -60.03859 | 269 ft | 8 kts | 85° |
| 2026-05-07 23:37 | -3.03859 | -60.03820 | 269 ft | 5 kts | 68° |
| 2026-05-07 23:37 | -3.03832 | -60.03784 | 269 ft | 7 kts | 41° |
| 2026-05-07 23:37 | -3.03782 | -60.03769 | 269 ft | 8 kts | 356° |
| 2026-05-07 23:38 | -3.03723 | -60.03789 | 269 ft | 9 kts | 328° |
| 2026-05-07 23:38 | -3.03689 | -60.03848 | 269 ft | 10 kts | 290° |
| 2026-05-07 23:38 | -3.03667 | -60.03923 | 269 ft | 11 kts | 287° |
| 2026-05-07 23:38 | -3.03643 | -60.04004 | 269 ft | 12 kts | 280° |
| 2026-05-07 23:39 | -3.03624 | -60.04095 | 269 ft | 13 kts | 287° |
| 2026-05-07 23:39 | -3.03595 | -60.04189 | 269 ft | 14 kts | 287° |
| 2026-05-07 23:39 | -3.03546 | -60.04277 | 269 ft | 14 kts | 310° |
| 2026-05-07 23:39 | -3.03509 | -60.04315 | 269 ft | 5 kts | 320° |
| 2026-05-07 23:40 | -3.03477 | -60.04336 | 269 ft | 5 kts | 329° |
| 2026-05-07 23:40 | -3.03441 | -60.04356 | 269 ft | 6 kts | 333° |
| 2026-05-07 23:40 | -3.03400 | -60.04372 | 269 ft | 6 kts | 345° |
| 2026-05-07 23:40 | -3.03355 | -60.04384 | 269 ft | 3 kts | 336° |
| 2026-05-07 23:41 | -3.03337 | -60.04399 | 269 ft | 3 kts | 302° |
| 2026-05-07 23:41 | -3.03332 | -60.04423 | 269 ft | 3 kts | 269° |
| 2026-05-07 23:41 | -3.03336 | -60.04451 | 269 ft | 4 kts | 258° |
| 2026-05-07 23:41 | -3.03341 | -60.04476 | 269 ft | 2 kts | 270° |
| 2026-05-07 23:42 | -3.03334 | -60.04485 | 269 ft | 1 kts | 335° |
| 2026-05-07 23:42 | -3.03319 | -60.04488 | 269 ft | 2 kts | 348° |
| 2026-05-07 23:42 | -3.03302 | -60.04491 | 269 ft | 2 kts | 349° |
| 2026-05-07 23:42 | -3.03287 | -60.04494 | 269 ft | 1 kts | 349° |
| 2026-05-07 23:43 | -3.03274 | -60.04496 | 269 ft | 2 kts | 349° |
| 2026-05-07 23:43 | -3.03266 | -60.04498 | 269 ft | 0 kts | 349° |